• Join FlightAware (Why Join?)
  • Login
  • US Flag 
05:35AM EDT


 

Airport Tracker/Info


-or-


 

Live Flight TrackerFlight Track Log ✈ AAL832 ✈ 19-Jun-2013 ✈ KLAX - KORD

Flight Track Log - Related Links

Times and Time Zones

All times are in EDT time to prevent confusion due to time zone crossing. See the AAL832 flight status page for this flight to view local times or setup timezone preferences in your user account.

Time Position Orientation Groundspeed Altitude Reporting Facility
EDT Latitude Longitude Course Direction KTS MPH feet Rate Location/Type
12:41PM 33.9210 -118.4990 246° West 232 267 2,400  Level FlightAware
12:41PM 33.9100 -118.5280 245° Southwest 255 293 3,100 2,400 Climbing FlightAware
12:41PM 33.8980 -118.5590 245° Southwest 269 310 4,200 3,000 Climbing FlightAware
12:42PM 33.8940 -118.5680 242° Southwest 266 306 4,600 3,360 Climbing FlightAware
12:42PM 33.8820 -118.5830 226° Southwest 266 306 5,500 3,600 Climbing FlightAware
12:42PM 33.8620 -118.5910 198° South 276 318 6,400 3,000 Climbing FlightAware
12:43PM 33.8280 -118.5770 161° South 297 342 7,600 2,280 Climbing FlightAware
12:43PM 33.8150 -118.5570 128° Southeast 305 351 8,100 2,220 Climbing FlightAware
12:43PM 33.8100 -118.5340 105° East 304 350 8,800 3,000 Climbing FlightAware
12:44PM 33.8230 -118.4930 69° East 298 343 10,100 2,880 Climbing FlightAware
12:44PM 33.8340 -118.4810 42° Northeast 299 344 10,500 1,800 Climbing FlightAware
12:44PM 33.8600 -118.4670 24° Northeast 312 359 11,000 1,860 Climbing FlightAware
12:45PM 33.9150 -118.4400 22° Northeast 342 394 12,400 840 Climbing FlightAware
12:46PM 33.9820 -118.3990 27° Northeast 342 394 12,400 420 Level FlightAware
12:46PM 33.9390 -118.4190 201° Southwest 361 415 12,900 3,600 Climbing FlightAware
12:47PM 34.0310 -118.2600 55° Northeast 408 470 15,700 3,000 Climbing FlightAware
12:47PM 34.0880 -118.1600 55° Northeast 424 488 17,400 2,040 Climbing FlightAware
12:48PM 34.1320 -118.0820 56° Northeast 434 499 18,700 1,860 Climbing FlightAware
12:49PM 34.1780 -118.0000 56° Northeast 444 511 20,000 1,800 Climbing FlightAware
12:49PM 34.2290 -117.9100 56° Northeast 455 524 21,300 1,800 Climbing FlightAware
12:50PM 34.2800 -117.8180 56° Northeast 464 534 22,600 1,260 Climbing FlightAware
12:51PM 34.2990 -117.7840 56° Northeast 466 536 23,100 1,740 Climbing FlightAware
12:52PM 34.4010 -117.6170 53° Northeast 477 549 25,400 2,100 Climbing FlightAware
12:52PM 34.4570 -117.5390 49° Northeast 484 557 26,400 1,380 Climbing FlightAware
12:53PM 34.5250 -117.4430 49° Northeast 495 570 27,400 1,200 Climbing FlightAware
12:54PM 34.5890 -117.3520 49° Northeast 503 579 28,200 900 Climbing FlightAware
12:55PM 34.6320 -117.2900 50° Northeast 507 583 28,800 1,380 Climbing FlightAware
12:56PM 34.7570 -117.1110 50° Northeast 508 585 30,800 1,740 Climbing FlightAware
12:56PM 34.8160 -117.0260 50° Northeast 506 582 31,800 1,320 Climbing FlightAware
12:57PM 34.8770 -116.9380 50° Northeast 508 585 32,600 780 Climbing FlightAware
12:58PM 34.9350 -116.8560 49° Northeast 508 585 32,900 180 Climbing FlightAware
12:58PM 34.9850 -116.7860 49° Northeast 508 585 32,900  Level FlightAware
12:59PM 35.0340 -116.7180 49° Northeast 508 585 32,900 1,920 Level FlightAware
01:00PM 35.1210 -116.5860 51° Northeast 509 586 35,500 2,040 Climbing FlightAware
01:01PM 35.2110 -116.4550 50° Northeast 509 586 36,400 900 Climbing FlightAware
01:01PM 35.2720 -116.3650 50° Northeast 509 586 37,000 360 Climbing FlightAware
01:02PM 35.3350 -116.2720 50° Northeast 509 586 37,000  Level FlightAware
01:03PM 35.3790 -116.2090 49° Northeast 509 586 37,000  Level FlightAware
01:03PM 35.4570 -116.0940 50° Northeast 504 580 37,000  Level FlightAware
01:04PM 35.5260 -115.9940 50° Northeast 506 582 37,000  Level FlightAware
01:05PM 35.5840 -115.9060 51° Northeast 509 586 37,000  Level FlightAware
01:05PM 35.6440 -115.8160 51° Northeast 510 587 37,000  Level FlightAware
01:06PM 35.7140 -115.7110 51° Northeast 510 587 37,000  Level FlightAware
01:07PM 35.7800 -115.6130 50° Northeast 510 587 37,000  Level FlightAware
01:08PM 35.8420 -115.5190 51° Northeast 509 586 37,000  Level FlightAware
01:08PM 35.9050 -115.4240 51° Northeast 510 587 37,000  Level FlightAware
01:09PM 35.9660 -115.3340 50° Northeast 513 590 37,000  Level FlightAware
01:10PM 36.0160 -115.2580 51° Northeast 515 593 37,000  Level FlightAware
01:10PM 36.0780 -115.1510 54° Northeast 522 601 37,000  Level FlightAware
01:11PM 36.1100 -115.0640 65° Northeast 529 609 37,000  Level FlightAware
01:12PM 36.1760 -114.8490 69° East 530 610 37,000  Level FlightAware
01:13PM 36.2120 -114.7320 69° East 529 609 37,000  Level FlightAware
01:13PM 36.2410 -114.6340 70° East 525 604 37,000  Level FlightAware
01:14PM 36.2760 -114.5170 70° East 527 606 37,000  Level FlightAware
01:15PM 36.3190 -114.3740 69° East 529 609 37,000  Level FlightAware
01:15PM 36.3450 -114.2870 70° East 529 609 37,000  Level FlightAware
01:16PM 36.3700 -114.2040 69° East 526 605 37,000  Level FlightAware
01:17PM 36.4050 -114.0850 70° East 527 606 37,000  Level FlightAware
01:17PM 36.4400 -113.9660 70° East 526 605 37,000  Level FlightAware
01:18PM 36.4740 -113.8520 70° East 523 602 37,000  Level FlightAware
01:19PM 36.5090 -113.7320 70° East 520 598 37,000  Level FlightAware
01:19PM 36.5460 -113.6080 70° East 517 595 37,000  Level FlightAware
01:20PM 36.5760 -113.5040 70° East 517 595 37,000  Level FlightAware
01:21PM 36.6150 -113.3700 70° East 517 595 37,000  Level FlightAware
01:22PM 36.6470 -113.2590 70° East 518 596 37,000  Level FlightAware
01:22PM 36.6800 -113.1420 71° East 517 595 37,000  Level FlightAware
01:23PM 36.7160 -113.0180 70° East 519 597 37,000  Level FlightAware
01:24PM 36.7440 -112.9180 71° East 516 594 37,000  Level FlightAware
01:24PM 36.7820 -112.7860 70° East 518 596 37,000  Level FlightAware
01:25PM 36.8130 -112.6730 71° East 515 593 37,000  Level FlightAware
01:26PM 36.8420 -112.5730 70° East 516 594 37,000  Level FlightAware
01:26PM 36.8810 -112.4330 71° East 516 594 37,000  Level FlightAware
01:27PM 36.9130 -112.3160 71° East 511 588 37,000  Level FlightAware
01:28PM 36.9480 -112.1920 71° East 510 587 37,000  Level FlightAware
01:29PM 36.9780 -112.0820 71° East 508 585 37,000  Level FlightAware
01:29PM 37.0100 -111.9650 71° East 508 585 37,000  Level FlightAware
01:30PM 37.0380 -111.8570 72° East 507 583 37,000  Level FlightAware
01:31PM 37.0610 -111.7700 72° East 505 581 37,000  Level FlightAware
01:31PM 37.0990 -111.6180 73° East 503 579 37,000  Level FlightAware
01:32PM 37.1290 -111.5010 72° East 508 585 37,000  Level FlightAware
01:33PM 37.1590 -111.3840 72° East 508 585 37,000  Level FlightAware
01:33PM 37.1890 -111.2660 72° East 509 586 37,000  Level FlightAware
01:34PM 37.2190 -111.1460 73° East 511 588 37,000  Level FlightAware
01:36PM 37.2810 -110.9060 72° East 511 588 37,000  Level FlightAware
01:37PM 37.3160 -110.7720 72° East 511 588 37,000  Level FlightAware
01:37PM 37.3380 -110.6880 72° East 511 588 37,000  Level FlightAware
01:38PM 37.3670 -110.5720 73° East 511 588 37,000  Level FlightAware
01:39PM 37.3910 -110.4810 72° East 511 588 37,000  Level FlightAware
01:40PM 37.4450 -110.2280 75° East 505 581 37,000  Level FlightAware
01:40PM 37.4670 -110.1380 73° East 504 580 37,000  Level FlightAware
01:41PM 37.4960 -110.0160 73° East 505 581 37,000  Level FlightAware
01:41PM 37.5250 -109.9040 72° East 508 585 37,000  Level FlightAware
01:42PM 37.5560 -109.7930 71° East 506 582 37,000  Level FlightAware
01:43PM 37.5880 -109.6740 71° East 506 582 37,000  Level FlightAware
01:44PM 37.6210 -109.5520 71° East 506 582 37,000  Level FlightAware
01:44PM 37.6500 -109.4420 72° East 504 580 37,000  Level FlightAware
01:45PM 37.6810 -109.3230 72° East 502 578 37,000  Level FlightAware
01:46PM 37.7130 -109.2010 72° East 501 577 37,000  Level FlightAware
01:47PM 37.7420 -109.0920 71° East 500 575 37,000  Level FlightAware
01:47PM 37.7830 -108.9360 72° East 500 575 37,000  Level FlightAware
01:48PM 37.8150 -108.8100 72° East 498 573 37,000  Level FlightAware
01:49PM 37.8460 -108.6930 71° East 498 573 37,000  Level FlightAware
01:49PM 37.8740 -108.5810 72° East 498 573 37,000  Level FlightAware
01:50PM 37.8990 -108.4830 72° East 496 571 37,000  Level FlightAware
01:51PM 37.9260 -108.3780 72° East 494 568 37,000  Level FlightAware
01:51PM 37.9580 -108.2500 72° East 493 567 37,000  Level FlightAware
01:52PM 37.9850 -108.1430 72° East 492 566 37,000  Level FlightAware
01:53PM 38.0160 -108.0190 72° East 495 570 37,000  Level FlightAware
01:53PM 38.0430 -107.9090 73° East 492 566 37,000  Level FlightAware
01:54PM 38.0700 -107.8000 73° East 491 565 37,000  Level FlightAware
01:56PM 38.1270 -107.5700 72° East 488 562 37,000  Level FlightAware
01:57PM 38.1690 -107.4000 73° East 489 563 37,000  Level FlightAware
01:57PM 38.1940 -107.2930 73° East 489 563 37,000  Level FlightAware
01:58PM 38.2220 -107.1810 72° East 486 559 37,000  Level FlightAware
01:59PM 38.2510 -107.0590 73° East 484 557 37,000  Level FlightAware
01:59PM 38.2740 -106.9630 73° East 484 557 37,000  Level FlightAware
02:00PM 38.2987 -106.8610 73° East 482 555 37,000  Level FlightAware ADS-B
02:00PM 38.3186 -106.7760 73° East 482 555 37,000  Level FlightAware ADS-B
02:01PM 38.3383 -106.6940 73° East 483 556 37,000  Level FlightAware ADS-B
02:01PM 38.3590 -106.6060 73° East 482 555 37,000  Level FlightAware ADS-B
02:02PM 38.3807 -106.5140 73° East 482 555 37,000  Level FlightAware ADS-B
02:03PM 38.4013 -106.4260 73° East 483 556 37,000  Level FlightAware ADS-B
02:03PM 38.4205 -106.3440 73° East 477 549 37,000  Level FlightAware ADS-B
02:04PM 38.4395 -106.2620 73° East 473 544 37,000  Level FlightAware ADS-B
02:04PM 38.4643 -106.1540 74° East 471 542 37,000  Level FlightAware ADS-B
02:05PM 38.4839 -106.0700 73° East 468 539 37,000  Level FlightAware ADS-B
02:05PM 38.4999 -105.9970 74° East 465 535 37,000  Level FlightAware ADS-B
02:06PM 38.5123 -105.9120 79° East 463 533 37,000  Level FlightAware ADS-B
02:06PM 38.5238 -105.8310 80° East 462 532 37,000  Level FlightAware ADS-B
02:07PM 38.5356 -105.7480 80° East 462 532 37,000  Level FlightAware ADS-B
02:07PM 38.5470 -105.6670 80° East 464 534 37,000  Level FlightAware ADS-B
02:08PM 38.5584 -105.5860 80° East 467 537 37,000  Level FlightAware ADS-B
02:08PM 38.5700 -105.5030 80° East 467 537 37,000  Level FlightAware ADS-B
02:09PM 38.5812 -105.4220 80° East 465 535 37,000  Level FlightAware ADS-B
02:09PM 38.5924 -105.3400 80° East 467 537 37,000  Level FlightAware ADS-B
02:10PM 38.6035 -105.2580 80° East 469 540 37,000  Level FlightAware ADS-B
02:10PM 38.6146 -105.1760 80° East 470 541 37,000  Level FlightAware ADS-B
02:11PM 38.6264 -105.0900 80° East 467 537 37,000  Level FlightAware ADS-B
02:11PM 38.6376 -105.0070 80° East 469 540 37,000  Level FlightAware ADS-B
02:12PM 38.6485 -104.9250 80° East 468 539 37,000  Level FlightAware ADS-B
02:12PM 38.6596 -104.8420 80° East 469 540 37,000  Level FlightAware ADS-B
02:13PM 38.6718 -104.7500 80° East 469 540 37,000  Level FlightAware ADS-B
02:13PM 38.6840 -104.6560 81° East 471 542 37,000  Level FlightAware ADS-B
02:14PM 38.6952 -104.5700 81° East 471 542 37,000  Level FlightAware ADS-B
02:15PM 38.7079 -104.4720 81° East 471 542 37,000  Level FlightAware ADS-B
02:15PM 38.7187 -104.3890 81° East 473 544 37,000  Level FlightAware ADS-B
02:16PM 38.7300 -104.3020 81° East 474 545 37,000  Level FlightAware ADS-B
02:16PM 38.7409 -104.2170 81° East 477 549 37,000  Level FlightAware ADS-B
02:17PM 38.7515 -104.1330 81° East 478 550 37,000  Level FlightAware ADS-B
02:17PM 38.7619 -104.0490 81° East 479 551 37,000  Level FlightAware ADS-B
02:18PM 38.7725 -103.9640 81° East 478 550 37,000  Level FlightAware ADS-B
02:18PM 38.7831 -103.8780 81° East 478 550 37,000  Level FlightAware ADS-B
02:19PM 38.7935 -103.7940 81° East 479 551 37,000  Level FlightAware ADS-B
02:19PM 38.8041 -103.7080 81° East 479 551 37,000  Level FlightAware ADS-B
02:20PM 38.8146 -103.6230 81° East 479 551 37,000  Level FlightAware ADS-B
02:20PM 38.8253 -103.5340 81° East 479 551 37,000  Level FlightAware ADS-B
02:21PM 38.8356 -103.4480 81° East 479 551 37,000  Level FlightAware ADS-B
02:21PM 38.8459 -103.3640 81° East 480 552 37,000  Level FlightAware ADS-B
02:22PM 38.8559 -103.2790 81° East 481 554 37,000  Level FlightAware ADS-B
02:22PM 38.8664 -103.1890 81° East 483 556 37,000  Level FlightAware ADS-B
02:23PM 38.8768 -103.1010 81° East 486 559 37,000  Level FlightAware ADS-B
02:23PM 38.8869 -103.0150 81° East 486 559 37,000  Level FlightAware ADS-B
02:24PM 38.8973 -102.9240 82° East 488 562 37,000  Level FlightAware ADS-B
02:24PM 38.9076 -102.8360 81° East 487 560 37,000  Level FlightAware ADS-B
02:24PM 38.9090 -102.8230 82° East 488 562 37,000  Level FlightAware ADS-B
02:25PM 38.9177 -102.7480 81° East 488 562 37,000  Level FlightAware ADS-B
02:25PM 38.9197 -102.7300 82° East 488 562 37,000  Level FlightAware ADS-B
02:25PM 38.9274 -102.6620 82° East 488 562 37,000  Level FlightAware ADS-B
02:26PM 38.9317 -102.6230 82° East 488 562 37,000  Level FlightAware ADS-B
02:26PM 38.9371 -102.5750 82° East 488 562 37,000  Level FlightAware ADS-B
02:26PM 38.9469 -102.4880 82° East 487 560 37,000  Level FlightAware ADS-B
02:26PM 38.9493 -102.4670 82° East 488 562 37,000  Level FlightAware ADS-B
02:27PM 38.9566 -102.4000 82° East 488 562 37,000  Level FlightAware ADS-B
02:27PM 38.9597 -102.3730 82° East 488 562 37,000  Level FlightAware ADS-B
02:27PM 38.9663 -102.3130 82° East 488 562 37,000  Level FlightAware ADS-B
02:28PM 38.9762 -102.2220 82° East 487 560 37,000  Level FlightAware ADS-B
02:28PM 38.9875 -102.1180 82° East 488 562 37,000  Level FlightAware ADS-B
02:29PM 38.9981 -102.0200 82° East 489 563 37,000  Level FlightAware ADS-B
02:29PM 38.9983 -102.0170 85° East 489 563 37,000  Level FlightAware ADS-B
02:30PM 39.0105 -101.9290 80° East 489 563 37,000  Level FlightAware ADS-B
02:30PM 39.0110 -101.9250 81° East 489 563 37,000  Level FlightAware ADS-B
02:30PM 39.0229 -101.8420 80° East 489 563 37,000  Level FlightAware ADS-B
02:30PM 39.0244 -101.8310 80° East 489 563 37,000  Level FlightAware ADS-B
02:31PM 39.0368 -101.7420 80° East 489 563 37,000  Level FlightAware ADS-B
02:31PM 39.0488 -101.6560 80° East 489 563 37,000  Level FlightAware ADS-B
02:32PM 39.0608 -101.5690 80° East 490 564 37,000  Level FlightAware ADS-B
02:32PM 39.0746 -101.4710 80° East 491 565 37,000  Level FlightAware ADS-B
02:33PM 39.0866 -101.3840 80° East 491 565 37,000 420 Level FlightAware ADS-B
02:34PM 39.1058 -101.2430 80° East 490 564 37,600 660 Climbing FlightAware ADS-B
02:34PM 39.1175 -101.1525 80° East 492 566 38,000 600 Climbing Denver Center
02:35PM 39.1397 -100.9881 80° East 488 562 38,600 480 Climbing Denver Center
02:36PM 39.1661 -100.7944 80° East 490 564 39,000 180 Climbing Denver Center
02:37PM 39.1883 -100.6281 80° East 492 566 39,000  Level Denver Center
02:38PM 39.2125 -100.4336 81° East 491 565 39,000  Level Denver Center
02:39PM 39.2350 -100.2703 80° East 487 560 39,000  Level Denver Center
02:40PM 39.2600 -100.0767 80° East 487 560 39,000  Level Denver Center
02:41PM 39.2806 -99.9103 81° East 489 563 39,000  Level Denver Center
02:47PM 39.3930 -98.9630 81° East 508 585 39,000  Level FlightAware
02:47PM 39.4040 -98.8690 81° East 508 585 39,000  Level FlightAware
02:48PM 39.4200 -98.7410 81° East 508 585 39,000  Level FlightAware
02:49PM 39.4310 -98.6540 81° East 508 585 39,000  Level FlightAware
02:50PM 39.4530 -98.4350 83° East 507 583 39,000  Level FlightAware
02:50PM 39.4680 -98.3150 81° East 507 583 39,000  Level FlightAware
02:51PM 39.4860 -98.1290 83° East 503 579 39,000  Level FlightAware
02:52PM 39.5030 -97.9810 81° East 504 580 39,000  Level FlightAware
02:53PM 39.5200 -97.8620 79° East 505 581 39,000  Level FlightAware
02:53PM 39.5370 -97.7390 80° East 506 582 39,000  Level FlightAware
02:54PM 39.5530 -97.6230 80° East 506 582 39,000  Level FlightAware
02:55PM 39.5700 -97.5050 79° East 507 583 39,000  Level FlightAware
02:56PM 39.5940 -97.3320 80° East 508 585 39,000  Level FlightAware
02:56PM 39.6100 -97.2150 80° East 510 587 39,000  Level FlightAware
02:57PM 39.6290 -97.0730 80° East 511 588 39,000  Level FlightAware
02:58PM 39.6450 -96.9510 80° East 511 588 39,000  Level FlightAware
02:59PM 39.6640 -96.8110 80° East 512 589 39,000  Level FlightAware
02:59PM 39.6790 -96.6970 80° East 511 588 39,000  Level FlightAware
03:00PM 39.6940 -96.5820 80° East 510 587 39,000  Level FlightAware
03:01PM 39.7170 -96.3980 81° East 508 585 39,000  Level FlightAware
03:02PM 39.7350 -96.2610 80° East 506 582 39,000  Level FlightAware
03:02PM 39.7490 -96.1560 80° East 505 581 39,000  Level FlightAware
03:03PM 39.7620 -96.0470 81° East 505 581 39,000  Level FlightAware
03:03PM 39.7750 -95.9470 80° East 505 581 39,000  Level FlightAware
03:04PM 39.7890 -95.8290 81° East 505 581 39,000  Level FlightAware
03:05PM 39.8040 -95.7080 81° East 506 582 39,000  Level FlightAware
03:05PM 39.8200 -95.5750 81° East 507 583 39,000  Level FlightAware
03:06PM 39.8360 -95.4420 81° East 508 585 39,000  Level FlightAware
03:07PM 39.8510 -95.3230 81° East 508 585 39,000  Level FlightAware
03:08PM 39.8650 -95.1990 82° East 508 585 39,000  Level FlightAware
03:08PM 39.8820 -95.0580 81° East 508 585 39,000  Level FlightAware
03:09PM 39.8950 -94.9390 82° East 507 583 39,000  Level FlightAware
03:10PM 39.9090 -94.8220 81° East 505 581 39,000  Level FlightAware
03:10PM 39.9230 -94.6970 82° East 502 578 39,000  Level FlightAware
03:11PM 39.9300 -94.6380 81° East 500 575 39,000  Level FlightAware
03:12PM 39.9460 -94.4890 82° East 498 573 39,000  Level FlightAware
03:12PM 39.9630 -94.3390 82° East 496 571 39,000  Level FlightAware
03:13PM 39.9760 -94.2240 82° East 493 567 39,000  Level FlightAware
03:14PM 39.9890 -94.1000 82° East 494 568 39,000  Level FlightAware
03:14PM 40.0030 -93.9760 82° East 494 568 39,000  Level FlightAware
03:15PM 40.0120 -93.8880 82° East 494 568 39,000  Level FlightAware
03:16PM 40.0240 -93.7660 83° East 496 571 39,000  Level FlightAware
03:16PM 40.0360 -93.6410 83° East 496 571 39,000  Level FlightAware
03:17PM 40.0490 -93.5080 83° East 497 572 39,000  Level FlightAware
03:18PM 40.0590 -93.4030 83° East 497 572 39,000  Level FlightAware
03:18PM 40.0730 -93.2600 83° East 497 572 39,000  Level FlightAware
03:19PM 40.0850 -93.1400 83° East 498 573 39,000  Level FlightAware
03:20PM 40.0970 -93.0120 83° East 498 573 39,000  Level FlightAware
03:21PM 40.1160 -92.8260 82° East 498 573 39,000 -180 Level FlightAware
03:22PM 40.1350 -92.6900 80° East 493 567 38,700 -780 Descending FlightAware
03:22PM 40.1760 -92.5640 67° East 497 572 38,000 -480 Descending FlightAware
03:23PM 40.2140 -92.4490 67° East 498 573 38,000  Level FlightAware
03:24PM 40.2630 -92.3030 66° East 498 573 38,000  Level FlightAware
03:25PM 40.3130 -92.1490 67° East 489 563 38,000  Level FlightAware
03:26PM 40.3600 -92.0090 66° East 488 562 38,000  Level FlightAware
03:27PM 40.3970 -91.8900 68° East 485 558 38,000 -120 Level FlightAware
03:27PM 40.4320 -91.7870 66° East 484 557 37,900 -1,800 Descending FlightAware
03:28PM 40.4800 -91.6330 68° East 491 565 35,200 -2,640 Descending FlightAware
03:29PM 40.5160 -91.5210 67° East 483 556 33,900 -1,860 Descending FlightAware
03:29PM 40.5440 -91.4320 67° East 479 551 33,000 -660 Descending FlightAware
03:30PM 40.5790 -91.3250 67° East 469 540 33,000  Level FlightAware
03:31PM 40.6200 -91.2090 65° Northeast 465 535 33,000  Level FlightAware
03:31PM 40.6560 -91.1060 65° Northeast 469 540 33,000  Level FlightAware
03:32PM 40.6880 -91.0110 66° East 469 540 33,000  Level FlightAware
03:33PM 40.7210 -90.9120 66° East 469 540 33,000  Level FlightAware
03:34PM 40.7660 -90.7820 65° Northeast 462 532 33,000  Level FlightAware
03:34PM 40.8020 -90.6740 66° East 465 535 33,000 -420 Level FlightAware
03:35PM 40.8380 -90.5650 66° East 459 528 32,500 -1,200 Descending FlightAware
03:35PM 40.8630 -90.4920 66° East 449 517 31,600 -1,860 Descending FlightAware
03:36PM 40.8970 -90.3900 66° East 436 502 30,300 -1,860 Descending FlightAware
03:37PM 40.9310 -90.2860 67° East 441 507 29,100 -1,620 Descending FlightAware
03:37PM 40.9610 -90.1950 66° East 442 509 28,200 -1,500 Descending FlightAware
03:38PM 40.9970 -90.0870 66° East 433 498 27,100 -1,500 Descending FlightAware
03:39PM 41.0330 -89.9770 67° East 440 506 26,000 -1,440 Descending FlightAware
03:40PM 41.0640 -89.8830 66° East 438 504 25,100 -1,200 Descending FlightAware
03:40PM 41.0990 -89.7740 67° East 434 499 24,400 -1,020 Descending FlightAware
03:41PM 41.1320 -89.6720 67° East 428 493 23,700 -1,560 Descending FlightAware
03:41PM 41.1570 -89.5980 66° East 430 495 22,600 -2,100 Descending FlightAware
03:42PM 41.1920 -89.5080 63° Northeast 429 494 21,300 -1,860 Descending FlightAware
03:43PM 41.2330 -89.4070 62° Northeast 416 479 20,100 -1,980 Descending FlightAware
03:44PM 41.2690 -89.3180 62° Northeast 407 468 18,600 -2,220 Descending FlightAware
03:44PM 41.3050 -89.2280 62° Northeast 402 463 17,100 -1,740 Descending FlightAware
03:46PM 41.3610 -89.0880 62° Northeast 388 447 15,100 -1,980 Descending FlightAware
03:46PM 41.4070 -88.9730 62° Northeast 381 438 13,200 -2,340 Descending FlightAware
03:47PM 41.4360 -88.9010 62° Northeast 373 429 12,200 -1,680 Descending FlightAware
03:48PM 41.4770 -88.7980 62° Northeast 361 415 10,800 -960 Descending FlightAware
03:48PM 41.5090 -88.7160 62° Northeast 354 407 10,800  Level FlightAware
03:49PM 41.5370 -88.6450 62° Northeast 310 357 10,800 -120 Level FlightAware
03:50PM 41.5620 -88.5760 64° Northeast 302 348 10,700 -840 Descending FlightAware
03:50PM 41.5870 -88.5020 66° East 299 344 9,700 -1,320 Descending FlightAware
03:51PM 41.5970 -88.4750 64° Northeast 297 342 9,400 -1,380 Descending FlightAware
03:51PM 41.6120 -88.4290 66° East 294 338 8,700 -1,500 Descending FlightAware
03:52PM 41.6280 -88.3820 66° East 291 335 8,000 -960 Descending FlightAware
03:52PM 41.6440 -88.3360 65° Northeast 290 334 7,800 -240 Descending FlightAware
03:53PM 41.6560 -88.2990 67° East 288 331 7,800  Level FlightAware
03:53PM 41.6730 -88.2480 66° East 290 334 7,800 -240 Level FlightAware
03:53PM 41.6930 -88.2060 57° Northeast 288 331 7,600 -960 Descending FlightAware
03:54PM 41.7150 -88.1800 41° Northeast 287 330 7,000 -1,560 Descending FlightAware
03:54PM 41.7360 -88.1570 39° Northeast 280 322 6,500 -960 Descending FlightAware
03:55PM 41.7570 -88.1320 42° Northeast 259 298 6,300 -540 Descending FlightAware
03:55PM 41.7670 -88.1190 44° Northeast 245 282 6,200 -780 Descending FlightAware
03:55PM 41.7900 -88.0930 40° Northeast 214 246 5,800 -1,080 Descending FlightAware
03:55PM 41.7990 -88.0820 42° Northeast 207 238 5,500 -1,320 Descending FlightAware
03:56PM 41.8160 -88.0620 41° Northeast 192 221 5,000 -1,500 Descending FlightAware
03:56PM 41.8360 -88.0370 43° Northeast 181 208 4,100 -1,620 Descending FlightAware
03:57PM 41.8440 -88.0290 37° Northeast 183 211 3,800 -1,440 Descending FlightAware
03:57PM 41.8550 -88.0160 41° Northeast 178 205 3,400 -1,500 Descending FlightAware
03:57PM 41.8720 -87.9950 43° Northeast 169 194 2,700 -1,440 Descending FlightAware
03:58PM 41.8860 -87.9780 42° Northeast 165 190 2,200 -1,080 Descending FlightAware
03:58PM 41.9020 -87.9600 40° Northeast 159 183 1,800 -840 Descending FlightAware
03:59PM 41.9180 -87.9420 40° Northeast 147 169 1,400 -780 Descending FlightAware
03:59PM 41.9300 -87.9270 43° Northeast 141 162 1,100 -720 Descending FlightAware
03:59PM 41.9400 -87.9150 42° Northeast 148 170 900 -840 Descending FlightAware
04:00PM 41.9530 -87.9000 41° Northeast 145 167 500 -960 Descending FlightAware
04:01PM 41.9630 -87.8880 42° Northeast 96 110 -780 Descending FlightAware
04:01PM 41.9690 -87.8800 45° Northeast 57 66  Level FlightAware